sensor_id;sensor_type;location;lat;lon;timestamp;P1;durP1;ratioP1;P2;durP2;ratioP2
72547;SDS011;60570;50.848;6.776;2023-01-28T00:00:26;4.55;;;2.00;;
72547;SDS011;60570;50.848;6.776;2023-01-28T00:01:26;4.07;;;1.87;;
72547;SDS011;60570;50.848;6.776;2023-01-28T00:02:27;3.63;;;1.83;;
72547;SDS011;60570;50.848;6.776;2023-01-28T00:03:27;4.23;;;2.07;;
72547;SDS011;60570;50.848;6.776;2023-01-28T00:04:27;4.20;;;2.03;;
72547;SDS011;60570;50.848;6.776;2023-01-28T00:05:30;4.55;;;1.90;;
72547;SDS011;60570;50.848;6.776;2023-01-28T00:06:30;3.80;;;1.73;;
72547;SDS011;60570;50.848;6.776;2023-01-28T00:07:30;3.87;;;1.80;;
72547;SDS011;60570;50.848;6.776;2023-01-28T00:08:31;3.53;;;1.70;;
72547;SDS011;60570;50.848;6.776;2023-01-28T00:09:32;3.35;;;1.63;;
72547;SDS011;60570;50.848;6.776;2023-01-28T00:10:33;3.03;;;1.67;;
72547;SDS011;60570;50.848;6.776;2023-01-28T00:11:33;3.57;;;1.80;;
72547;SDS011;60570;50.848;6.776;2023-01-28T00:12:34;3.47;;;1.87;;
72547;SDS011;60570;50.848;6.776;2023-01-28T00:13:38;4.32;;;1.80;;
72547;SDS011;60570;50.848;6.776;2023-01-28T00:14:39;3.72;;;1.67;;
72547;SDS011;60570;50.848;6.776;2023-01-28T00:15:39;3.70;;;1.77;;
72547;SDS011;60570;50.848;6.776;2023-01-28T00:16:41;3.10;;;1.60;;
72547;SDS011;60570;50.848;6.776;2023-01-28T00:17:41;3.63;;;1.70;;
72547;SDS011;60570;50.848;6.776;2023-01-28T00:18:42;3.87;;;1.90;;
72547;SDS011;60570;50.848;6.776;2023-01-28T00:19:42;3.97;;;1.70;;
72547;SDS011;60570;50.848;6.776;2023-01-28T00:20:43;3.38;;;1.70;;
72547;SDS011;60570;50.848;6.776;2023-01-28T00:21:54;3.95;;;1.73;;
72547;SDS011;60570;50.848;6.776;2023-01-28T00:22:54;3.60;;;1.70;;
72547;SDS011;60570;50.848;6.776;2023-01-28T00:23:55;3.20;;;1.60;;
72547;SDS011;60570;50.848;6.776;2023-01-28T00:24:56;3.70;;;1.67;;
72547;SDS011;60570;50.848;6.776;2023-01-28T00:25:57;3.20;;;1.60;;
72547;SDS011;60570;50.848;6.776;2023-01-28T00:26:58;3.05;;;1.50;;
72547;SDS011;60570;50.848;6.776;2023-01-28T00:27:58;4.33;;;1.77;;
72547;SDS011;60570;50.848;6.776;2023-01-28T00:28:59;3.20;;;1.60;;
72547;SDS011;60570;50.848;6.776;2023-01-28T00:29:59;3.45;;;1.50;;
72547;SDS011;60570;50.848;6.776;2023-01-28T00:31:06;2.77;;;1.40;;
72547;SDS011;60570;50.848;6.776;2023-01-28T00:32:08;3.33;;;1.63;;
72547;SDS011;60570;50.848;6.776;2023-01-28T00:33:09;3.33;;;1.58;;
72547;SDS011;60570;50.848;6.776;2023-01-28T00:34:10;3.93;;;1.60;;
72547;SDS011;60570;50.848;6.776;2023-01-28T00:35:10;3.13;;;1.50;;
72547;SDS011;60570;50.848;6.776;2023-01-28T00:36:11;3.70;;;1.50;;
72547;SDS011;60570;50.848;6.776;2023-01-28T00:37:12;3.60;;;1.58;;
72547;SDS011;60570;50.848;6.776;2023-01-28T00:38:12;3.80;;;1.73;;
72547;SDS011;60570;50.848;6.776;2023-01-28T00:39:13;3.43;;;1.40;;
72547;SDS011;60570;50.848;6.776;2023-01-28T00:40:14;3.40;;;1.40;;
72547;SDS011;60570;50.848;6.776;2023-01-28T00:41:15;3.63;;;1.50;;
72547;SDS011;60570;50.848;6.776;2023-01-28T00:42:20;4.10;;;1.60;;
72547;SDS011;60570;50.848;6.776;2023-01-28T00:43:21;3.67;;;1.60;;
72547;SDS011;60570;50.848;6.776;2023-01-28T00:44:21;3.65;;;1.50;;
72547;SDS011;60570;50.848;6.776;2023-01-28T00:45:22;2.93;;;1.50;;
72547;SDS011;60570;50.848;6.776;2023-01-28T00:46:22;3.60;;;1.33;;
72547;SDS011;60570;50.848;6.776;2023-01-28T00:47:27;3.25;;;1.60;;
72547;SDS011;60570;50.848;6.776;2023-01-28T00:48:28;4.63;;;1.58;;
72547;SDS011;60570;50.848;6.776;2023-01-28T00:49:28;4.20;;;1.50;;
72547;SDS011;60570;50.848;6.776;2023-01-28T00:50:30;3.55;;;1.77;;
72547;SDS011;60570;50.848;6.776;2023-01-28T00:51:30;2.92;;;1.42;;
72547;SDS011;60570;50.848;6.776;2023-01-28T00:52:31;3.83;;;1.63;;
72547;SDS011;60570;50.848;6.776;2023-01-28T00:53:32;3.55;;;1.50;;
72547;SDS011;60570;50.848;6.776;2023-01-28T00:54:35;3.50;;;1.50;;
72547;SDS011;60570;50.848;6.776;2023-01-28T00:55:36;3.87;;;1.60;;
72547;SDS011;60570;50.848;6.776;2023-01-28T00:56:37;3.40;;;1.50;;
72547;SDS011;60570;50.848;6.776;2023-01-28T00:57:38;5.95;;;1.80;;
72547;SDS011;60570;50.848;6.776;2023-01-28T00:58:38;3.17;;;1.40;;
72547;SDS011;60570;50.848;6.776;2023-01-28T00:59:39;3.50;;;1.60;;
72547;SDS011;60570;50.848;6.776;2023-01-28T01:00:39;3.60;;;1.70;;
72547;SDS011;60570;50.848;6.776;2023-01-28T01:01:40;3.15;;;1.40;;
72547;SDS011;60570;50.848;6.776;2023-01-28T01:02:42;4.65;;;1.55;;
72547;SDS011;60570;50.848;6.776;2023-01-28T01:03:42;3.57;;;1.40;;
72547;SDS011;60570;50.848;6.776;2023-01-28T01:04:43;3.10;;;1.40;;
72547;SDS011;60570;50.848;6.776;2023-01-28T01:05:56;3.53;;;1.60;;
72547;SDS011;60570;50.848;6.776;2023-01-28T01:06:56;3.67;;;1.60;;
72547;SDS011;60570;50.848;6.776;2023-01-28T01:07:57;4.93;;;1.50;;
72547;SDS011;60570;50.848;6.776;2023-01-28T01:08:57;5.00;;;1.50;;
72547;SDS011;60570;50.848;6.776;2023-01-28T01:10:01;3.65;;;1.48;;
72547;SDS011;60570;50.848;6.776;2023-01-28T01:11:06;4.85;;;1.60;;
72547;SDS011;60570;50.848;6.776;2023-01-28T01:12:08;3.55;;;1.52;;
72547;SDS011;60570;50.848;6.776;2023-01-28T01:13:09;4.05;;;1.58;;
72547;SDS011;60570;50.848;6.776;2023-01-28T01:14:09;3.70;;;1.37;;
72547;SDS011;60570;50.848;6.776;2023-01-28T01:15:10;2.97;;;1.30;;
72547;SDS011;60570;50.848;6.776;2023-01-28T01:16:12;3.90;;;1.42;;
72547;SDS011;60570;50.848;6.776;2023-01-28T01:17:17;4.25;;;1.80;;
72547;SDS011;60570;50.848;6.776;2023-01-28T01:18:19;4.00;;;1.45;;
72547;SDS011;60570;50.848;6.776;2023-01-28T01:19:19;2.90;;;1.50;;
72547;SDS011;60570;50.848;6.776;2023-01-28T01:20:21;3.55;;;1.45;;
72547;SDS011;60570;50.848;6.776;2023-01-28T01:21:26;4.28;;;1.50;;
72547;SDS011;60570;50.848;6.776;2023-01-28T01:22:27;5.00;;;1.80;;
72547;SDS011;60570;50.848;6.776;2023-01-28T01:23:28;3.78;;;1.67;;
72547;SDS011;60570;50.848;6.776;2023-01-28T01:24:30;3.17;;;1.30;;
72547;SDS011;60570;50.848;6.776;2023-01-28T01:25:33;5.60;;;1.80;;
72547;SDS011;60570;50.848;6.776;2023-01-28T01:26:33;4.78;;;1.67;;
72547;SDS011;60570;50.848;6.776;2023-01-28T01:27:33;3.10;;;1.50;;
72547;SDS011;60570;50.848;6.776;2023-01-28T01:28:35;4.03;;;1.65;;
72547;SDS011;60570;50.848;6.776;2023-01-28T01:29:36;3.30;;;1.70;;
72547;SDS011;60570;50.848;6.776;2023-01-28T01:30:36;4.63;;;1.70;;
72547;SDS011;60570;50.848;6.776;2023-01-28T01:31:37;5.13;;;1.90;;
72547;SDS011;60570;50.848;6.776;2023-01-28T01:32:37;4.35;;;1.65;;
72547;SDS011;60570;50.848;6.776;2023-01-28T01:33:38;4.35;;;1.80;;
72547;SDS011;60570;50.848;6.776;2023-01-28T01:34:39;4.25;;;1.70;;
72547;SDS011;60570;50.848;6.776;2023-01-28T01:35:40;4.73;;;1.73;;
72547;SDS011;60570;50.848;6.776;2023-01-28T01:36:40;3.83;;;1.60;;
72547;SDS011;60570;50.848;6.776;2023-01-28T01:37:43;4.20;;;1.80;;
72547;SDS011;60570;50.848;6.776;2023-01-28T01:38:44;4.03;;;1.80;;
72547;SDS011;60570;50.848;6.776;2023-01-28T01:39:44;4.88;;;1.77;;
72547;SDS011;60570;50.848;6.776;2023-01-28T01:40:45;4.30;;;1.63;;
72547;SDS011;60570;50.848;6.776;2023-01-28T01:41:46;3.70;;;1.83;;
72547;SDS011;60570;50.848;6.776;2023-01-28T01:42:47;4.03;;;1.73;;
72547;SDS011;60570;50.848;6.776;2023-01-28T01:43:52;3.75;;;1.70;;
72547;SDS011;60570;50.848;6.776;2023-01-28T01:44:56;3.67;;;1.70;;
72547;SDS011;60570;50.848;6.776;2023-01-28T01:48:48;6.10;;;1.77;;
72547;SDS011;60570;50.848;6.776;2023-01-28T01:49:49;4.27;;;1.60;;
72547;SDS011;60570;50.848;6.776;2023-01-28T01:51:09;4.57;;;1.80;;
72547;SDS011;60570;50.848;6.776;2023-01-28T01:52:14;4.05;;;1.70;;
72547;SDS011;60570;50.848;6.776;2023-01-28T01:53:19;3.53;;;1.50;;
72547;SDS011;60570;50.848;6.776;2023-01-28T01:54:22;3.70;;;1.60;;
72547;SDS011;60570;50.848;6.776;2023-01-28T01:55:26;3.22;;;1.70;;
72547;SDS011;60570;50.848;6.776;2023-01-28T01:56:30;4.30;;;1.70;;
72547;SDS011;60570;50.848;6.776;2023-01-28T01:57:34;4.13;;;1.70;;
72547;SDS011;60570;50.848;6.776;2023-01-28T01:58:36;4.15;;;1.90;;
72547;SDS011;60570;50.848;6.776;2023-01-28T01:59:39;4.78;;;1.85;;
72547;SDS011;60570;50.848;6.776;2023-01-28T02:00:44;3.55;;;1.45;;
72547;SDS011;60570;50.848;6.776;2023-01-28T02:01:45;3.77;;;1.53;;
72547;SDS011;60570;50.848;6.776;2023-01-28T02:02:47;4.75;;;1.73;;
72547;SDS011;60570;50.848;6.776;2023-01-28T02:05:02;3.75;;;1.70;;
72547;SDS011;60570;50.848;6.776;2023-01-28T02:06:03;3.13;;;1.43;;
72547;SDS011;60570;50.848;6.776;2023-01-28T02:07:04;4.47;;;1.70;;
72547;SDS011;60570;50.848;6.776;2023-01-28T02:08:07;3.25;;;1.65;;
72547;SDS011;60570;50.848;6.776;2023-01-28T02:09:32;4.70;;;2.05;;
72547;SDS011;60570;50.848;6.776;2023-01-28T02:10:37;3.55;;;1.60;;
72547;SDS011;60570;50.848;6.776;2023-01-28T02:11:39;3.60;;;1.92;;
72547;SDS011;60570;50.848;6.776;2023-01-28T02:12:41;4.55;;;1.70;;
72547;SDS011;60570;50.848;6.776;2023-01-28T02:13:45;3.67;;;1.60;;
72547;SDS011;60570;50.848;6.776;2023-01-28T02:14:53;3.45;;;1.67;;
72547;SDS011;60570;50.848;6.776;2023-01-28T02:16:02;5.20;;;2.00;;
72547;SDS011;60570;50.848;6.776;2023-01-28T02:17:10;4.57;;;1.70;;
72547;SDS011;60570;50.848;6.776;2023-01-28T02:18:11;4.50;;;1.80;;
72547;SDS011;60570;50.848;6.776;2023-01-28T02:19:14;4.20;;;1.80;;
72547;SDS011;60570;50.848;6.776;2023-01-28T02:20:20;5.20;;;1.92;;
72547;SDS011;60570;50.848;6.776;2023-01-28T02:24:28;3.97;;;2.00;;
72547;SDS011;60570;50.848;6.776;2023-01-28T02:27:17;3.70;;;1.80;;
72547;SDS011;60570;50.848;6.776;2023-01-28T02:28:33;4.47;;;1.80;;
72547;SDS011;60570;50.848;6.776;2023-01-28T02:29:49;3.72;;;1.67;;
72547;SDS011;60570;50.848;6.776;2023-01-28T02:32:04;3.53;;;1.63;;
72547;SDS011;60570;50.848;6.776;2023-01-28T02:33:14;4.00;;;1.80;;
72547;SDS011;60570;50.848;6.776;2023-01-28T02:35:28;3.55;;;1.60;;
72547;SDS011;60570;50.848;6.776;2023-01-28T02:38:04;3.92;;;1.90;;
72547;SDS011;60570;50.848;6.776;2023-01-28T02:39:12;3.50;;;1.55;;
72547;SDS011;60570;50.848;6.776;2023-01-28T02:40:17;4.13;;;1.88;;
72547;SDS011;60570;50.848;6.776;2023-01-28T02:41:27;3.92;;;1.80;;
72547;SDS011;60570;50.848;6.776;2023-01-28T02:42:33;3.75;;;1.88;;
72547;SDS011;60570;50.848;6.776;2023-01-28T02:44:42;3.85;;;1.73;;
72547;SDS011;60570;50.848;6.776;2023-01-28T02:45:42;3.95;;;1.83;;
72547;SDS011;60570;50.848;6.776;2023-01-28T02:47:01;4.10;;;1.60;;
72547;SDS011;60570;50.848;6.776;2023-01-28T02:48:21;3.85;;;1.90;;
72547;SDS011;60570;50.848;6.776;2023-01-28T02:49:27;4.22;;;1.90;;
72547;SDS011;60570;50.848;6.776;2023-01-28T02:50:38;4.68;;;2.10;;
72547;SDS011;60570;50.848;6.776;2023-01-28T02:53:19;3.80;;;1.80;;
72547;SDS011;60570;50.848;6.776;2023-01-28T02:57:34;4.43;;;2.05;;
72547;SDS011;60570;50.848;6.776;2023-01-28T03:01:40;4.28;;;2.20;;
72547;SDS011;60570;50.848;6.776;2023-01-28T03:02:49;4.30;;;2.13;;
72547;SDS011;60570;50.848;6.776;2023-01-28T03:04:01;4.20;;;2.10;;
72547;SDS011;60570;50.848;6.776;2023-01-28T03:06:24;3.85;;;2.05;;
72547;SDS011;60570;50.848;6.776;2023-01-28T03:07:33;3.83;;;1.93;;
72547;SDS011;60570;50.848;6.776;2023-01-28T03:10:15;5.68;;;2.55;;
72547;SDS011;60570;50.848;6.776;2023-01-28T03:11:19;4.30;;;2.35;;
72547;SDS011;60570;50.848;6.776;2023-01-28T03:12:38;4.35;;;2.20;;
72547;SDS011;60570;50.848;6.776;2023-01-28T03:13:59;5.60;;;2.40;;
72547;SDS011;60570;50.848;6.776;2023-01-28T03:15:23;4.50;;;2.30;;
72547;SDS011;60570;50.848;6.776;2023-01-28T03:16:46;4.45;;;2.20;;
72547;SDS011;60570;50.848;6.776;2023-01-28T03:18:10;5.22;;;2.63;;
72547;SDS011;60570;50.848;6.776;2023-01-28T03:19:33;5.65;;;2.70;;
72547;SDS011;60570;50.848;6.776;2023-01-28T03:22:39;5.95;;;2.78;;
72547;SDS011;60570;50.848;6.776;2023-01-28T03:24:06;5.60;;;2.63;;
72547;SDS011;60570;50.848;6.776;2023-01-28T03:25:28;6.13;;;3.08;;
72547;SDS011;60570;50.848;6.776;2023-01-28T03:28:16;5.28;;;2.67;;
72547;SDS011;60570;50.848;6.776;2023-01-28T03:29:40;4.72;;;2.70;;
72547;SDS011;60570;50.848;6.776;2023-01-28T03:31:02;6.55;;;2.97;;
72547;SDS011;60570;50.848;6.776;2023-01-28T03:32:23;5.22;;;3.03;;
72547;SDS011;60570;50.848;6.776;2023-01-28T03:33:43;4.78;;;2.85;;
72547;SDS011;60570;50.848;6.776;2023-01-28T03:35:03;5.55;;;2.67;;
72547;SDS011;60570;50.848;6.776;2023-01-28T03:36:25;5.47;;;2.78;;
72547;SDS011;60570;50.848;6.776;2023-01-28T03:37:45;5.13;;;2.88;;
72547;SDS011;60570;50.848;6.776;2023-01-28T03:38:45;5.93;;;3.10;;
72547;SDS011;60570;50.848;6.776;2023-01-28T03:39:47;6.00;;;2.92;;
72547;SDS011;60570;50.848;6.776;2023-01-28T03:40:52;6.65;;;2.85;;
72547;SDS011;60570;50.848;6.776;2023-01-28T03:41:59;5.00;;;2.60;;
72547;SDS011;60570;50.848;6.776;2023-01-28T03:43:05;6.32;;;3.20;;
72547;SDS011;60570;50.848;6.776;2023-01-28T03:44:05;6.50;;;2.90;;
72547;SDS011;60570;50.848;6.776;2023-01-28T03:45:25;6.03;;;2.70;;
72547;SDS011;60570;50.848;6.776;2023-01-28T03:46:25;6.15;;;2.90;;
72547;SDS011;60570;50.848;6.776;2023-01-28T03:47:27;5.32;;;2.88;;
72547;SDS011;60570;50.848;6.776;2023-01-28T03:48:28;6.45;;;2.90;;
72547;SDS011;60570;50.848;6.776;2023-01-28T03:49:29;6.00;;;2.80;;
72547;SDS011;60570;50.848;6.776;2023-01-28T03:50:29;5.40;;;2.70;;
72547;SDS011;60570;50.848;6.776;2023-01-28T03:51:30;5.18;;;2.83;;
72547;SDS011;60570;50.848;6.776;2023-01-28T03:52:32;5.40;;;3.00;;
72547;SDS011;60570;50.848;6.776;2023-01-28T03:53:32;5.53;;;2.83;;
72547;SDS011;60570;50.848;6.776;2023-01-28T03:54:33;5.07;;;2.55;;
72547;SDS011;60570;50.848;6.776;2023-01-28T03:55:33;6.97;;;2.90;;
72547;SDS011;60570;50.848;6.776;2023-01-28T03:56:34;4.93;;;2.90;;
72547;SDS011;60570;50.848;6.776;2023-01-28T03:57:39;5.00;;;2.90;;
72547;SDS011;60570;50.848;6.776;2023-01-28T03:58:39;5.87;;;2.83;;
72547;SDS011;60570;50.848;6.776;2023-01-28T03:59:52;6.75;;;2.97;;
72547;SDS011;60570;50.848;6.776;2023-01-28T04:00:53;6.30;;;3.20;;
72547;SDS011;60570;50.848;6.776;2023-01-28T04:01:54;7.18;;;2.90;;
72547;SDS011;60570;50.848;6.776;2023-01-28T04:02:54;5.97;;;2.55;;
72547;SDS011;60570;50.848;6.776;2023-01-28T04:03:54;4.97;;;2.80;;
72547;SDS011;60570;50.848;6.776;2023-01-28T04:04:55;4.95;;;2.80;;
72547;SDS011;60570;50.848;6.776;2023-01-28T04:05:59;5.82;;;3.13;;
72547;SDS011;60570;50.848;6.776;2023-01-28T04:07:06;4.95;;;2.55;;
72547;SDS011;60570;50.848;6.776;2023-01-28T04:08:09;6.03;;;3.13;;
72547;SDS011;60570;50.848;6.776;2023-01-28T04:09:12;6.97;;;2.92;;
72547;SDS011;60570;50.848;6.776;2023-01-28T04:10:12;5.87;;;2.87;;
72547;SDS011;60570;50.848;6.776;2023-01-28T04:11:13;6.57;;;2.88;;
72547;SDS011;60570;50.848;6.776;2023-01-28T04:12:18;6.40;;;2.83;;
72547;SDS011;60570;50.848;6.776;2023-01-28T04:13:19;6.03;;;2.63;;
72547;SDS011;60570;50.848;6.776;2023-01-28T04:14:23;4.63;;;2.73;;
72547;SDS011;60570;50.848;6.776;2023-01-28T04:15:24;5.45;;;2.85;;
72547;SDS011;60570;50.848;6.776;2023-01-28T04:16:25;4.70;;;2.83;;
72547;SDS011;60570;50.848;6.776;2023-01-28T04:17:25;4.72;;;2.65;;
72547;SDS011;60570;50.848;6.776;2023-01-28T04:18:25;5.33;;;2.87;;
72547;SDS011;60570;50.848;6.776;2023-01-28T04:19:26;6.45;;;2.83;;
72547;SDS011;60570;50.848;6.776;2023-01-28T04:20:27;6.10;;;2.75;;
72547;SDS011;60570;50.848;6.776;2023-01-28T04:21:28;4.97;;;2.60;;
72547;SDS011;60570;50.848;6.776;2023-01-28T04:22:28;6.80;;;2.77;;
72547;SDS011;60570;50.848;6.776;2023-01-28T04:23:29;4.97;;;2.63;;
72547;SDS011;60570;50.848;6.776;2023-01-28T04:24:30;5.18;;;2.55;;
72547;SDS011;60570;50.848;6.776;2023-01-28T04:25:30;4.93;;;2.65;;
72547;SDS011;60570;50.848;6.776;2023-01-28T04:26:34;6.10;;;2.90;;
72547;SDS011;60570;50.848;6.776;2023-01-28T04:27:34;4.95;;;2.47;;
72547;SDS011;60570;50.848;6.776;2023-01-28T04:28:35;5.10;;;2.60;;
72547;SDS011;60570;50.848;6.776;2023-01-28T04:29:35;5.28;;;2.55;;
72547;SDS011;60570;50.848;6.776;2023-01-28T04:30:36;4.47;;;2.40;;
72547;SDS011;60570;50.848;6.776;2023-01-28T04:31:36;5.63;;;2.40;;
72547;SDS011;60570;50.848;6.776;2023-01-28T04:32:36;5.67;;;2.60;;
72547;SDS011;60570;50.848;6.776;2023-01-28T04:33:37;5.13;;;2.70;;
72547;SDS011;60570;50.848;6.776;2023-01-28T04:34:38;4.73;;;2.50;;
72547;SDS011;60570;50.848;6.776;2023-01-28T04:35:39;5.43;;;2.58;;
72547;SDS011;60570;50.848;6.776;2023-01-28T04:36:39;5.75;;;2.58;;
72547;SDS011;60570;50.848;6.776;2023-01-28T04:37:40;5.70;;;2.60;;
72547;SDS011;60570;50.848;6.776;2023-01-28T04:38:41;4.70;;;2.53;;
72547;SDS011;60570;50.848;6.776;2023-01-28T04:39:41;4.63;;;2.50;;
72547;SDS011;60570;50.848;6.776;2023-01-28T04:40:42;5.80;;;2.73;;
72547;SDS011;60570;50.848;6.776;2023-01-28T04:41:42;4.80;;;2.55;;
72547;SDS011;60570;50.848;6.776;2023-01-28T04:42:51;4.23;;;2.47;;
72547;SDS011;60570;50.848;6.776;2023-01-28T04:43:52;5.05;;;2.40;;
72547;SDS011;60570;50.848;6.776;2023-01-28T04:44:53;5.27;;;2.57;;
72547;SDS011;60570;50.848;6.776;2023-01-28T04:45:53;4.57;;;2.47;;
72547;SDS011;60570;50.848;6.776;2023-01-28T04:46:54;5.10;;;2.40;;
72547;SDS011;60570;50.848;6.776;2023-01-28T04:47:54;4.67;;;2.47;;
72547;SDS011;60570;50.848;6.776;2023-01-28T04:48:54;5.15;;;2.78;;
72547;SDS011;60570;50.848;6.776;2023-01-28T04:49:55;5.17;;;2.53;;
72547;SDS011;60570;50.848;6.776;2023-01-28T04:50:55;4.80;;;2.43;;
72547;SDS011;60570;50.848;6.776;2023-01-28T04:51:56;5.37;;;2.40;;
72547;SDS011;60570;50.848;6.776;2023-01-28T04:52:56;4.78;;;2.33;;
72547;SDS011;60570;50.848;6.776;2023-01-28T04:53:57;5.17;;;2.57;;
72547;SDS011;60570;50.848;6.776;2023-01-28T04:54:57;4.33;;;2.50;;
72547;SDS011;60570;50.848;6.776;2023-01-28T04:55:58;4.28;;;2.28;;
72547;SDS011;60570;50.848;6.776;2023-01-28T04:56:58;4.13;;;2.23;;
72547;SDS011;60570;50.848;6.776;2023-01-28T04:57:58;4.95;;;2.60;;
72547;SDS011;60570;50.848;6.776;2023-01-28T04:59:02;5.20;;;2.57;;
72547;SDS011;60570;50.848;6.776;2023-01-28T05:00:05;5.13;;;2.47;;
72547;SDS011;60570;50.848;6.776;2023-01-28T05:01:06;5.00;;;2.28;;
72547;SDS011;60570;50.848;6.776;2023-01-28T05:02:06;4.57;;;2.30;;
72547;SDS011;60570;50.848;6.776;2023-01-28T05:03:06;5.03;;;2.38;;
72547;SDS011;60570;50.848;6.776;2023-01-28T05:04:07;5.33;;;2.50;;
72547;SDS011;60570;50.848;6.776;2023-01-28T05:05:08;4.93;;;2.65;;
72547;SDS011;60570;50.848;6.776;2023-01-28T05:06:09;5.60;;;2.70;;
72547;SDS011;60570;50.848;6.776;2023-01-28T05:07:09;5.20;;;2.40;;
72547;SDS011;60570;50.848;6.776;2023-01-28T05:08:10;4.50;;;2.33;;
72547;SDS011;60570;50.848;6.776;2023-01-28T05:09:10;4.83;;;2.40;;
72547;SDS011;60570;50.848;6.776;2023-01-28T05:10:11;5.37;;;2.57;;
72547;SDS011;60570;50.848;6.776;2023-01-28T05:11:11;6.03;;;2.80;;
72547;SDS011;60570;50.848;6.776;2023-01-28T05:12:12;4.82;;;2.60;;
72547;SDS011;60570;50.848;6.776;2023-01-28T05:13:13;4.95;;;2.38;;
72547;SDS011;60570;50.848;6.776;2023-01-28T05:14:13;5.03;;;2.33;;
72547;SDS011;60570;50.848;6.776;2023-01-28T05:15:17;4.70;;;2.25;;
72547;SDS011;60570;50.848;6.776;2023-01-28T05:16:18;4.75;;;2.53;;
72547;SDS011;60570;50.848;6.776;2023-01-28T05:17:27;4.38;;;2.22;;
72547;SDS011;60570;50.848;6.776;2023-01-28T05:18:28;4.80;;;2.50;;
72547;SDS011;60570;50.848;6.776;2023-01-28T05:19:28;5.03;;;2.40;;
72547;SDS011;60570;50.848;6.776;2023-01-28T05:20:29;5.28;;;2.60;;
72547;SDS011;60570;50.848;6.776;2023-01-28T05:21:29;4.47;;;2.30;;
72547;SDS011;60570;50.848;6.776;2023-01-28T05:22:29;5.73;;;2.50;;
72547;SDS011;60570;50.848;6.776;2023-01-28T05:23:30;5.77;;;2.40;;
72547;SDS011;60570;50.848;6.776;2023-01-28T05:24:30;4.23;;;2.40;;
72547;SDS011;60570;50.848;6.776;2023-01-28T05:25:31;4.68;;;2.40;;
72547;SDS011;60570;50.848;6.776;2023-01-28T05:26:31;5.40;;;2.50;;
72547;SDS011;60570;50.848;6.776;2023-01-28T05:27:32;4.93;;;2.37;;
72547;SDS011;60570;50.848;6.776;2023-01-28T05:28:32;4.83;;;2.47;;
72547;SDS011;60570;50.848;6.776;2023-01-28T05:29:33;5.00;;;2.50;;
72547;SDS011;60570;50.848;6.776;2023-01-28T05:30:33;4.67;;;2.30;;
72547;SDS011;60570;50.848;6.776;2023-01-28T05:31:33;5.03;;;2.30;;
72547;SDS011;60570;50.848;6.776;2023-01-28T05:32:34;5.55;;;2.40;;
72547;SDS011;60570;50.848;6.776;2023-01-28T05:33:34;4.90;;;2.37;;
72547;SDS011;60570;50.848;6.776;2023-01-28T05:34:35;4.50;;;2.47;;
72547;SDS011;60570;50.848;6.776;2023-01-28T05:35:35;5.17;;;2.40;;
72547;SDS011;60570;50.848;6.776;2023-01-28T05:36:36;4.43;;;2.40;;
72547;SDS011;60570;50.848;6.776;2023-01-28T05:37:36;4.60;;;2.60;;
72547;SDS011;60570;50.848;6.776;2023-01-28T05:38:37;4.33;;;2.20;;
72547;SDS011;60570;50.848;6.776;2023-01-28T05:39:37;4.93;;;2.27;;
72547;SDS011;60570;50.848;6.776;2023-01-28T05:40:37;5.07;;;2.50;;
72547;SDS011;60570;50.848;6.776;2023-01-28T05:41:40;6.15;;;2.70;;
72547;SDS011;60570;50.848;6.776;2023-01-28T05:42:41;4.93;;;2.30;;
72547;SDS011;60570;50.848;6.776;2023-01-28T05:43:42;4.20;;;2.23;;
72547;SDS011;60570;50.848;6.776;2023-01-28T05:44:42;5.03;;;2.40;;
72547;SDS011;60570;50.848;6.776;2023-01-28T05:45:43;4.23;;;2.13;;
72547;SDS011;60570;50.848;6.776;2023-01-28T05:46:43;5.32;;;2.30;;
72547;SDS011;60570;50.848;6.776;2023-01-28T05:47:45;4.90;;;2.30;;
72547;SDS011;60570;50.848;6.776;2023-01-28T05:48:46;6.30;;;3.10;;
72547;SDS011;60570;50.848;6.776;2023-01-28T05:49:46;6.10;;;2.80;;
72547;SDS011;60570;50.848;6.776;2023-01-28T05:50:48;5.30;;;2.47;;
72547;SDS011;60570;50.848;6.776;2023-01-28T05:51:49;4.53;;;2.30;;
72547;SDS011;60570;50.848;6.776;2023-01-28T05:52:49;5.95;;;2.75;;
72547;SDS011;60570;50.848;6.776;2023-01-28T05:53:50;5.50;;;2.53;;
72547;SDS011;60570;50.848;6.776;2023-01-28T05:54:51;5.25;;;2.50;;
72547;SDS011;60570;50.848;6.776;2023-01-28T05:55:52;4.95;;;2.65;;
72547;SDS011;60570;50.848;6.776;2023-01-28T05:56:52;4.82;;;2.80;;
72547;SDS011;60570;50.848;6.776;2023-01-28T05:57:53;4.77;;;2.40;;
72547;SDS011;60570;50.848;6.776;2023-01-28T05:58:53;5.83;;;2.70;;
72547;SDS011;60570;50.848;6.776;2023-01-28T05:59:54;5.30;;;2.80;;
72547;SDS011;60570;50.848;6.776;2023-01-28T06:00:54;4.80;;;2.60;;
72547;SDS011;60570;50.848;6.776;2023-01-28T06:01:55;5.30;;;3.08;;
72547;SDS011;60570;50.848;6.776;2023-01-28T06:02:55;5.17;;;2.80;;
72547;SDS011;60570;50.848;6.776;2023-01-28T06:03:56;5.10;;;2.70;;
72547;SDS011;60570;50.848;6.776;2023-01-28T06:04:56;5.40;;;2.78;;
72547;SDS011;60570;50.848;6.776;2023-01-28T06:05:57;5.80;;;2.80;;
72547;SDS011;60570;50.848;6.776;2023-01-28T06:06:57;5.20;;;2.77;;
72547;SDS011;60570;50.848;6.776;2023-01-28T06:07:58;4.40;;;2.67;;
72547;SDS011;60570;50.848;6.776;2023-01-28T06:08:58;4.40;;;2.67;;
72547;SDS011;60570;50.848;6.776;2023-01-28T06:09:58;5.07;;;2.80;;
72547;SDS011;60570;50.848;6.776;2023-01-28T06:10:59;5.57;;;2.93;;
72547;SDS011;60570;50.848;6.776;2023-01-28T06:11:59;5.30;;;2.80;;
72547;SDS011;60570;50.848;6.776;2023-01-28T06:13:00;5.27;;;2.60;;
72547;SDS011;60570;50.848;6.776;2023-01-28T06:14:03;6.05;;;3.03;;
72547;SDS011;60570;50.848;6.776;2023-01-28T06:15:03;6.10;;;3.00;;
72547;SDS011;60570;50.848;6.776;2023-01-28T06:16:07;4.82;;;2.85;;
72547;SDS011;60570;50.848;6.776;2023-01-28T06:17:07;6.22;;;3.13;;
72547;SDS011;60570;50.848;6.776;2023-01-28T06:18:08;6.23;;;3.30;;
72547;SDS011;60570;50.848;6.776;2023-01-28T06:19:08;5.20;;;3.13;;
72547;SDS011;60570;50.848;6.776;2023-01-28T06:20:09;5.30;;;3.13;;
72547;SDS011;60570;50.848;6.776;2023-01-28T06:21:10;6.03;;;3.55;;
72547;SDS011;60570;50.848;6.776;2023-01-28T06:22:10;5.33;;;3.00;;
72547;SDS011;60570;50.848;6.776;2023-01-28T06:23:11;5.78;;;3.67;;
72547;SDS011;60570;50.848;6.776;2023-01-28T06:24:11;5.60;;;3.40;;
72547;SDS011;60570;50.848;6.776;2023-01-28T06:25:13;6.20;;;3.60;;
72547;SDS011;60570;50.848;6.776;2023-01-28T06:26:13;6.20;;;3.87;;
72547;SDS011;60570;50.848;6.776;2023-01-28T06:27:13;6.63;;;3.88;;
72547;SDS011;60570;50.848;6.776;2023-01-28T06:28:14;6.00;;;3.70;;
72547;SDS011;60570;50.848;6.776;2023-01-28T06:29:15;6.53;;;3.70;;
72547;SDS011;60570;50.848;6.776;2023-01-28T06:30:15;6.57;;;3.87;;
72547;SDS011;60570;50.848;6.776;2023-01-28T06:31:16;7.83;;;4.10;;
72547;SDS011;60570;50.848;6.776;2023-01-28T06:32:18;7.18;;;4.10;;
72547;SDS011;60570;50.848;6.776;2023-01-28T06:33:19;6.88;;;4.00;;
72547;SDS011;60570;50.848;6.776;2023-01-28T06:34:20;6.53;;;4.40;;
72547;SDS011;60570;50.848;6.776;2023-01-28T06:35:21;7.43;;;4.20;;
72547;SDS011;60570;50.848;6.776;2023-01-28T06:36:22;6.95;;;4.53;;
72547;SDS011;60570;50.848;6.776;2023-01-28T06:37:22;7.37;;;4.50;;
72547;SDS011;60570;50.848;6.776;2023-01-28T06:38:23;7.63;;;4.80;;
72547;SDS011;60570;50.848;6.776;2023-01-28T06:39:23;7.13;;;4.77;;
72547;SDS011;60570;50.848;6.776;2023-01-28T06:40:26;8.05;;;5.28;;
72547;SDS011;60570;50.848;6.776;2023-01-28T06:41:26;7.73;;;5.13;;
72547;SDS011;60570;50.848;6.776;2023-01-28T06:42:26;7.97;;;5.32;;
72547;SDS011;60570;50.848;6.776;2023-01-28T06:43:27;7.30;;;5.40;;
72547;SDS011;60570;50.848;6.776;2023-01-28T06:44:29;7.93;;;5.25;;
72547;SDS011;60570;50.848;6.776;2023-01-28T06:45:30;8.48;;;5.72;;
72547;SDS011;60570;50.848;6.776;2023-01-28T06:46:30;8.40;;;5.90;;
72547;SDS011;60570;50.848;6.776;2023-01-28T06:47:31;8.30;;;5.90;;